createdAt,value
2022-09-27T00:02:08.352Z,99.72
2022-09-27T00:04:36.761Z,99.70
2022-09-27T00:07:05.626Z,99.69
2022-09-27T00:09:33.912Z,99.76
2022-09-27T00:12:02.055Z,99.80
2022-09-27T00:14:30.115Z,99.88
2022-09-27T00:16:58.202Z,99.70
2022-09-27T00:19:27.122Z,99.66
2022-09-27T00:21:56.785Z,99.71
2022-09-27T00:24:25.050Z,99.65
2022-09-27T00:26:53.397Z,99.81
2022-09-27T00:29:22.284Z,99.75
2022-09-27T00:31:50.453Z,99.54
2022-09-27T00:34:21.539Z,99.53
2022-09-27T00:36:53.415Z,99.50
2022-09-27T00:39:31.944Z,99.43
2022-09-27T00:42:00.195Z,99.39
2022-09-27T00:44:28.173Z,99.47
2022-09-27T00:47:06.715Z,99.43
2022-09-27T00:49:49.003Z,99.44
2022-09-27T00:52:42.216Z,99.45
2022-09-27T00:55:23.642Z,99.33
2022-09-27T00:57:52.327Z,99.31
2022-09-27T01:00:22.856Z,99.28
2022-09-27T01:02:55.412Z,99.82
2022-09-27T01:05:30.949Z,99.81
2022-09-27T01:08:02.139Z,99.70
2022-09-27T01:10:38.721Z,99.65
2022-09-27T01:13:36.669Z,99.69
2022-09-27T01:16:28.005Z,99.46
2022-09-27T01:19:23.410Z,99.61
2022-09-27T01:22:01.822Z,99.66
2022-09-27T01:25:07.484Z,99.58
2022-09-27T01:27:48.597Z,99.45
2022-09-27T01:30:29.825Z,99.44
2022-09-27T01:32:59.501Z,99.43
2022-09-27T01:35:49.046Z,99.45
2022-09-27T01:38:38.789Z,99.48
2022-09-27T01:41:14.618Z,99.50
2022-09-27T01:44:18.642Z,99.48
2022-09-27T01:46:55.272Z,99.62
2022-09-27T01:49:51.328Z,99.51
2022-09-27T01:52:23.786Z,99.52
2022-09-27T01:55:01.682Z,99.55
2022-09-27T01:57:49.294Z,99.63
2022-09-27T02:00:21.607Z,99.80
2022-09-27T02:03:00.965Z,99.84
2022-09-27T02:05:36.242Z,99.76
2022-09-27T02:08:41.978Z,99.91
2022-09-27T02:11:18.639Z,99.99
2022-09-27T02:14:00.511Z,99.99
2022-09-27T02:16:55.021Z,99.99
2022-09-27T02:20:03.848Z,99.97
2022-09-27T02:22:57.530Z,99.98
2022-09-27T02:25:29.285Z,100.00
2022-09-27T02:28:33.123Z,100.00
2022-09-27T02:31:01.307Z,99.99
2022-09-27T02:33:48.034Z,99.98
2022-09-27T02:36:17.678Z,99.88
2022-09-27T02:38:46.012Z,99.89
2022-09-27T02:41:21.359Z,99.88
2022-09-27T02:43:59.276Z,99.89
2022-09-27T02:46:38.547Z,99.94
2022-09-27T02:49:30.556Z,99.94
2022-09-27T02:52:46.819Z,99.94
2022-09-27T02:55:24.196Z,99.88
2022-09-27T02:58:03.200Z,99.97
2022-09-27T03:01:22.102Z,99.86
2022-09-27T03:04:19.165Z,99.89
2022-09-27T03:06:51.971Z,99.95
2022-09-27T03:09:41.068Z,99.88
2022-09-27T03:12:09.184Z,99.80
2022-09-27T03:14:37.504Z,99.92
2022-09-27T03:17:15.987Z,99.93
2022-09-27T03:20:19.636Z,99.90
2022-09-27T03:22:56.453Z,99.98
2022-09-27T03:25:24.809Z,100.00
2022-09-27T03:27:52.949Z,100.00
2022-09-27T03:30:21.044Z,100.00
2022-09-27T03:32:49.252Z,100.00
2022-09-27T03:35:37.106Z,100.00
2022-09-27T03:38:07.290Z,100.00
2022-09-27T03:40:36.483Z,100.00
2022-09-27T03:43:05.674Z,100.00
2022-09-27T03:45:34.512Z,100.00
2022-09-27T03:48:05.832Z,100.00
2022-09-27T03:50:38.288Z,100.00
2022-09-27T03:53:08.866Z,100.00
2022-09-27T03:55:37.107Z,100.00
2022-09-27T03:58:05.794Z,100.00
2022-09-27T04:00:36.327Z,100.00
2022-09-27T04:03:05.298Z,100.00
2022-09-27T04:06:00.649Z,100.00
2022-09-27T04:08:36.762Z,100.00
2022-09-27T04:11:06.289Z,100.00
2022-09-27T04:13:34.479Z,100.00
2022-09-27T04:16:03.104Z,100.00
2022-09-27T04:18:37.041Z,100.00
2022-09-27T04:21:43.407Z,100.00
2022-09-27T04:24:12.171Z,100.00
2022-09-27T04:26:43.145Z,100.00
2022-09-27T04:29:16.050Z,100.00
2022-09-27T04:31:51.985Z,100.00
2022-09-27T04:34:45.292Z,100.00
2022-09-27T04:37:14.395Z,100.00
2022-09-27T04:39:46.776Z,100.00
2022-09-27T04:42:15.593Z,99.95
2022-09-27T04:44:44.025Z,99.98
2022-09-27T04:47:13.734Z,100.00
2022-09-27T04:49:50.061Z,100.00
2022-09-27T04:52:18.049Z,100.00
2022-09-27T04:54:46.139Z,100.00
2022-09-27T04:57:19.278Z,100.00
2022-09-27T04:59:48.595Z,100.00
2022-09-27T05:02:19.520Z,100.00
2022-09-27T05:05:11.127Z,100.00
2022-09-27T05:07:41.779Z,100.00
2022-09-27T05:10:13.480Z,100.00
2022-09-27T05:12:41.811Z,100.00
2022-09-27T05:15:10.527Z,100.00
2022-09-27T05:17:38.621Z,100.00
2022-09-27T05:20:19.572Z,100.00
2022-09-27T05:23:04.956Z,100.00
2022-09-27T05:25:33.971Z,100.00
2022-09-27T05:28:02.527Z,100.00
2022-09-27T05:30:31.470Z,100.00
2022-09-27T05:33:09.880Z,100.00
2022-09-27T05:35:54.832Z,100.00
2022-09-27T05:38:25.752Z,100.00
2022-09-27T05:41:05.582Z,99.98
2022-09-27T05:43:36.387Z,99.98
2022-09-27T05:46:05.609Z,100.00
2022-09-27T05:48:34.176Z,100.00
2022-09-27T05:51:06.721Z,99.97
2022-09-27T05:53:43.627Z,99.98
2022-09-27T05:56:17.673Z,99.97
2022-09-27T05:59:04.223Z,99.95
2022-09-27T06:01:49.859Z,100.00
2022-09-27T06:04:19.088Z,100.00
2022-09-27T06:07:01.525Z,100.00
2022-09-27T06:09:34.556Z,99.98
2022-09-27T06:12:02.683Z,99.95
2022-09-27T06:14:30.919Z,99.80
2022-09-27T06:17:02.512Z,99.72
2022-09-27T06:19:35.778Z,99.82
2022-09-27T06:22:03.897Z,99.83
2022-09-27T06:24:44.756Z,99.65
2022-09-27T06:27:20.107Z,99.40
2022-09-27T06:29:56.480Z,99.18
2022-09-27T06:32:39.483Z,98.93
2022-09-27T06:35:36.760Z,98.43
2022-09-27T06:38:09.265Z,97.70
2022-09-27T06:40:46.139Z,97.45
2022-09-27T06:43:23.130Z,96.62
2022-09-27T06:46:20.346Z,95.89
2022-09-27T06:49:11.076Z,96.04
2022-09-27T06:51:40.975Z,96.06
2022-09-27T06:54:09.155Z,95.90
2022-09-27T06:56:38.710Z,95.00
2022-09-27T06:59:25.351Z,94.52
2022-09-27T07:02:13.518Z,94.70
2022-09-27T07:05:03.607Z,94.77
2022-09-27T07:07:56.445Z,94.81
2022-09-27T07:10:26.619Z,94.49
2022-09-27T07:12:56.740Z,93.87
2022-09-27T07:15:26.073Z,93.71
2022-09-27T07:17:59.934Z,93.52
2022-09-27T07:20:30.767Z,93.63
2022-09-27T07:22:59.506Z,93.42
2022-09-27T07:25:27.816Z,93.65
2022-09-27T07:28:02.605Z,93.22
2022-09-27T07:30:31.759Z,93.16
2022-09-27T07:33:02.629Z,93.07
2022-09-27T07:35:43.885Z,93.17
2022-09-27T07:38:15.386Z,92.76
2022-09-27T07:40:44.406Z,92.42
2022-09-27T07:43:13.226Z,92.58
2022-09-27T07:45:42.135Z,92.68
2022-09-27T07:48:30.961Z,91.26
2022-09-27T07:51:25.669Z,88.74
2022-09-27T07:54:08.905Z,87.18
2022-09-27T07:56:57.801Z,87.42
2022-09-27T07:59:26.409Z,86.43
2022-09-27T08:01:55.968Z,87.02
2022-09-27T08:04:24.218Z,86.95
2022-09-27T08:06:52.287Z,87.05
2022-09-27T08:09:21.542Z,85.78
2022-09-27T08:11:49.978Z,83.91
2022-09-27T08:14:18.914Z,83.09
2022-09-27T08:16:49.066Z,83.33
2022-09-27T08:19:31.469Z,81.28
2022-09-27T08:22:05.690Z,80.27
2022-09-27T08:24:49.045Z,81.71
2022-09-27T08:27:57.230Z,81.61
2022-09-27T08:30:36.023Z,81.82
2022-09-27T08:33:04.303Z,82.30
2022-09-27T08:35:35.290Z,80.72
2022-09-27T08:38:06.694Z,79.82
2022-09-27T08:40:48.480Z,79.34
2022-09-27T08:43:49.130Z,79.43
2022-09-27T08:46:37.495Z,80.08
2022-09-27T08:49:12.960Z,79.46
2022-09-27T08:51:42.232Z,78.03
2022-09-27T08:54:38.949Z,77.74
2022-09-27T08:57:13.000Z,77.31
2022-09-27T09:00:01.132Z,77.49
2022-09-27T09:02:29.538Z,77.57
2022-09-27T09:05:03.568Z,77.39
2022-09-27T09:07:48.121Z,76.39
2022-09-27T09:10:45.867Z,77.09
2022-09-27T09:13:39.079Z,76.34
2022-09-27T09:16:18.385Z,76.70
2022-09-27T09:19:07.919Z,74.24
2022-09-27T09:22:14.790Z,73.44
2022-09-27T09:25:04.019Z,72.68
2022-09-27T09:27:42.276Z,71.71
2022-09-27T09:30:25.303Z,69.82
2022-09-27T09:33:16.527Z,67.44
2022-09-27T09:36:00.479Z,68.79
2022-09-27T09:38:39.633Z,67.58
2022-09-27T09:41:12.479Z,65.90
2022-09-27T09:44:06.702Z,65.44
2022-09-27T09:46:55.841Z,63.69
2022-09-27T09:49:46.449Z,65.99
2022-09-27T09:52:21.552Z,64.09
2022-09-27T09:54:58.690Z,63.63
2022-09-27T09:57:44.132Z,63.01
2022-09-27T10:00:19.562Z,61.50
2022-09-27T10:02:50.044Z,61.70
2022-09-27T10:05:26.692Z,60.67
2022-09-27T10:08:17.219Z,59.95
2022-09-27T10:10:46.743Z,57.66
2022-09-27T10:13:38.433Z,58.53
2022-09-27T10:16:14.336Z,57.38
2022-09-27T10:18:47.583Z,56.62
2022-09-27T10:21:31.549Z,56.19
2022-09-27T10:24:06.107Z,57.32
2022-09-27T10:26:52.054Z,57.19
2022-09-27T10:29:20.227Z,56.96
2022-09-27T10:31:50.684Z,56.75
2022-09-27T10:34:35.064Z,57.58
2022-09-27T10:37:23.720Z,56.65
2022-09-27T10:40:29.530Z,57.38
2022-09-27T10:42:59.327Z,58.00
2022-09-27T10:45:37.224Z,58.87
2022-09-27T10:48:23.618Z,57.37
2022-09-27T10:51:00.342Z,57.16
2022-09-27T10:53:47.973Z,58.01
2022-09-27T10:56:33.765Z,56.43
2022-09-27T10:59:05.330Z,55.62
2022-09-27T11:01:45.567Z,54.67
2022-09-27T11:04:31.829Z,55.50
2022-09-27T11:07:22.171Z,55.43
2022-09-27T11:10:03.339Z,53.42
2022-09-27T11:12:36.160Z,53.92
2022-09-27T11:15:15.715Z,53.18
2022-09-27T11:17:57.505Z,51.66
2022-09-27T11:20:46.567Z,52.79
2022-09-27T11:23:27.258Z,53.54
2022-09-27T11:26:03.787Z,53.14
2022-09-27T11:28:47.224Z,52.82
2022-09-27T11:31:48.945Z,54.38
2022-09-27T11:34:30.077Z,53.61
2022-09-27T11:37:41.416Z,53.48
2022-09-27T11:40:15.599Z,52.63
2022-09-27T11:42:58.135Z,52.94
2022-09-27T11:46:28.157Z,53.66
2022-09-27T11:49:00.368Z,54.17
2022-09-27T11:51:34.724Z,53.57
2022-09-27T11:54:25.165Z,53.91
2022-09-27T11:57:06.320Z,54.16
2022-09-27T12:00:02.728Z,54.31
2022-09-27T12:02:58.538Z,55.16
2022-09-27T12:05:58.142Z,55.52
2022-09-27T12:08:55.889Z,56.43
2022-09-27T12:11:36.259Z,56.73
2022-09-27T12:14:17.809Z,56.91
2022-09-27T12:16:48.764Z,57.56
2022-09-27T12:19:41.880Z,57.47
2022-09-27T12:22:56.927Z,57.79
2022-09-27T12:25:27.455Z,58.21
2022-09-27T12:28:25.882Z,58.61
2022-09-27T12:31:28.016Z,58.68
2022-09-27T12:34:01.972Z,59.16
2022-09-27T12:36:38.774Z,59.74
2022-09-27T12:39:13.411Z,60.13
2022-09-27T12:41:52.184Z,60.38
2022-09-27T12:44:40.489Z,60.61
2022-09-27T12:47:46.562Z,60.86
2022-09-27T12:50:54.132Z,60.83
2022-09-27T12:53:30.880Z,60.22
2022-09-27T12:56:24.065Z,60.03
2022-09-27T12:59:11.307Z,60.00
2022-09-27T13:01:58.536Z,60.13
2022-09-27T13:04:58.426Z,60.17
2022-09-27T13:07:42.769Z,60.21
2022-09-27T13:10:27.139Z,60.03
2022-09-27T13:12:57.407Z,59.97
2022-09-27T13:15:25.342Z,59.54
2022-09-27T13:17:59.945Z,58.99
2022-09-27T13:20:40.063Z,59.27
2022-09-27T13:23:38.949Z,59.51
2022-09-27T13:26:09.991Z,59.71
2022-09-27T13:28:49.680Z,59.66
2022-09-27T13:31:55.493Z,59.79
2022-09-27T13:34:43.489Z,60.10
2022-09-27T13:37:29.573Z,60.15
2022-09-27T13:40:15.902Z,59.29
2022-09-27T13:43:13.472Z,59.10
2022-09-27T13:46:00.661Z,58.94
2022-09-27T13:49:04.868Z,58.70
2022-09-27T13:52:02.194Z,58.38
2022-09-27T13:54:42.117Z,58.82
2022-09-27T13:57:42.364Z,58.82
2022-09-27T14:00:25.859Z,59.33
2022-09-27T14:03:32.137Z,60.05
2022-09-27T14:06:08.410Z,60.32
2022-09-27T14:08:51.231Z,60.26
2022-09-27T14:11:43.167Z,60.36
2022-09-27T14:14:21.257Z,60.81
2022-09-27T14:16:54.394Z,60.63
2022-09-27T14:19:26.160Z,60.20
2022-09-27T14:21:55.286Z,60.08
2022-09-27T14:24:45.559Z,60.03
2022-09-27T14:27:29.615Z,60.63
2022-09-27T14:30:25.721Z,61.23
2022-09-27T14:33:31.761Z,61.88
2022-09-27T14:36:41.133Z,62.28
2022-09-27T14:39:15.898Z,63.41
2022-09-27T14:41:46.237Z,64.09
2022-09-27T14:44:28.069Z,64.50
2022-09-27T14:47:17.215Z,65.32
2022-09-27T14:49:55.534Z,66.16
2022-09-27T14:52:29.021Z,66.69
2022-09-27T14:55:03.452Z,67.67
2022-09-27T14:57:40.094Z,68.17
2022-09-27T15:00:32.476Z,68.41
2022-09-27T15:03:05.053Z,68.59
2022-09-27T15:05:35.228Z,68.52
2022-09-27T15:08:07.818Z,68.37
2022-09-27T15:10:41.088Z,68.51
2022-09-27T15:13:15.594Z,68.67
2022-09-27T15:15:43.954Z,68.70
2022-09-27T15:18:38.253Z,68.95
2022-09-27T15:21:11.132Z,69.31
2022-09-27T15:23:42.753Z,69.37
2022-09-27T15:26:24.157Z,69.58
2022-09-27T15:28:53.420Z,69.77
2022-09-27T15:31:33.226Z,70.15
2022-09-27T15:34:06.835Z,70.42
2022-09-27T15:36:55.224Z,70.25
2022-09-27T15:39:41.399Z,70.42
2022-09-27T15:42:17.745Z,70.56
2022-09-27T15:44:51.586Z,70.80
2022-09-27T15:47:34.961Z,70.80
2022-09-27T15:50:15.412Z,70.84
2022-09-27T15:52:52.134Z,71.23
2022-09-27T15:55:25.753Z,71.30
2022-09-27T15:58:19.883Z,71.47
2022-09-27T16:00:56.636Z,71.81
2022-09-27T16:03:26.918Z,71.90
2022-09-27T16:06:00.274Z,72.04
2022-09-27T16:08:53.255Z,72.11
2022-09-27T16:11:21.597Z,72.35
2022-09-27T16:13:55.084Z,72.52
2022-09-27T16:16:23.231Z,72.68
2022-09-27T16:18:51.452Z,72.88
2022-09-27T16:21:19.851Z,72.96
2022-09-27T16:23:47.928Z,72.92
2022-09-27T16:26:16.070Z,73.19
2022-09-27T16:28:44.136Z,73.34
2022-09-27T16:31:15.417Z,73.71
2022-09-27T16:33:43.695Z,73.86
2022-09-27T16:36:16.820Z,74.13
2022-09-27T16:38:49.228Z,74.45
2022-09-27T16:41:20.045Z,74.58
2022-09-27T16:43:49.528Z,74.55
2022-09-27T16:46:19.547Z,74.57
2022-09-27T16:48:48.324Z,74.59
2022-09-27T16:51:40.037Z,74.84
2022-09-27T16:54:10.754Z,75.11
2022-09-27T16:56:38.854Z,75.15
2022-09-27T16:59:07.325Z,75.59
2022-09-27T17:01:35.593Z,75.60
2022-09-27T17:04:03.586Z,75.72
2022-09-27T17:06:32.765Z,75.90
2022-09-27T17:09:04.459Z,76.03
2022-09-27T17:11:33.172Z,76.10
2022-09-27T17:14:01.280Z,76.39
2022-09-27T17:16:29.686Z,76.61
2022-09-27T17:18:57.891Z,76.68
2022-09-27T17:21:25.902Z,76.93
2022-09-27T17:23:53.851Z,76.76
2022-09-27T17:26:24.095Z,76.80
2022-09-27T17:28:55.057Z,76.89
2022-09-27T17:31:24.162Z,76.89
2022-09-27T17:33:57.475Z,77.05
2022-09-27T17:36:30.010Z,77.01
2022-09-27T17:38:59.703Z,77.23
2022-09-27T17:41:29.237Z,77.62
2022-09-27T17:43:59.284Z,77.60
2022-09-27T17:46:30.854Z,77.72
2022-09-27T17:49:19.709Z,77.97
2022-09-27T17:51:54.449Z,78.67
2022-09-27T17:54:26.405Z,79.07
2022-09-27T17:56:56.339Z,78.57
2022-09-27T17:59:24.685Z,79.00
2022-09-27T18:01:53.426Z,79.17
2022-09-27T18:04:21.587Z,79.17
2022-09-27T18:06:50.021Z,79.31
2022-09-27T18:09:18.829Z,80.24
2022-09-27T18:11:47.043Z,80.61
2022-09-27T18:14:15.374Z,80.01
2022-09-27T18:16:44.284Z,79.84
2022-09-27T18:19:15.321Z,79.82
2022-09-27T18:21:44.004Z,79.95
2022-09-27T18:24:14.344Z,80.14
2022-09-27T18:26:43.895Z,80.12
2022-09-27T18:29:16.240Z,79.60
2022-09-27T18:31:48.439Z,79.60
2022-09-27T18:34:18.794Z,79.95
2022-09-27T18:36:49.816Z,79.82
2022-09-27T18:39:22.723Z,80.43
2022-09-27T18:41:51.230Z,80.54
2022-09-27T18:44:20.043Z,80.68
2022-09-27T18:46:48.485Z,80.70
2022-09-27T18:49:16.724Z,80.97
2022-09-27T18:51:47.278Z,81.30
2022-09-27T18:54:18.728Z,80.97
2022-09-27T18:56:48.562Z,80.66
2022-09-27T18:59:19.228Z,80.61
2022-09-27T19:01:47.471Z,80.65
2022-09-27T19:04:24.251Z,80.57
2022-09-27T19:06:56.731Z,80.32
2022-09-27T19:09:29.088Z,80.19
2022-09-27T19:12:07.562Z,79.83
2022-09-27T19:14:35.706Z,79.00
2022-09-27T19:18:34.942Z,78.45
2022-09-27T19:21:15.937Z,77.89
2022-09-27T19:24:38.859Z,77.75
2022-09-27T19:27:08.390Z,77.59
2022-09-27T19:29:40.810Z,77.18
2022-09-27T19:32:47.497Z,76.59
2022-09-27T19:35:42.451Z,76.66
2022-09-27T19:38:10.713Z,76.69
2022-09-27T19:41:33.109Z,75.40
2022-09-27T19:44:02.794Z,74.60
2022-09-27T19:46:35.483Z,73.93
2022-09-27T19:50:07.044Z,74.53
2022-09-27T19:52:58.809Z,74.77
